createdAt,value
2018-09-27T00:00:55.528Z,2.77
2018-09-27T00:05:57.657Z,2.53
2018-09-27T00:10:59.786Z,2.77
2018-09-27T00:16:01.922Z,2.90
2018-09-27T00:21:04.090Z,3.27
2018-09-27T00:26:06.794Z,3.00
2018-09-27T00:31:08.986Z,3.33
2018-09-27T00:36:11.146Z,2.80
2018-09-27T00:41:13.285Z,2.63
2018-09-27T00:46:15.425Z,3.17
2018-09-27T00:51:17.561Z,2.83
2018-09-27T00:56:19.677Z,3.33
2018-09-27T01:01:21.831Z,2.97
2018-09-27T01:06:23.949Z,3.10
2018-09-27T01:11:26.073Z,3.13
2018-09-27T01:16:28.208Z,2.90
2018-09-27T01:21:30.745Z,2.80
2018-09-27T01:26:32.882Z,3.07
2018-09-27T01:31:35.022Z,3.00
2018-09-27T01:36:37.149Z,3.03
2018-09-27T01:41:39.486Z,2.83
2018-09-27T01:46:41.626Z,3.30
2018-09-27T01:51:43.757Z,3.60
2018-09-27T01:56:45.886Z,3.13
2018-09-27T02:01:48.006Z,2.80
2018-09-27T02:06:50.142Z,3.30
2018-09-27T02:11:52.281Z,3.47
2018-09-27T02:16:54.397Z,3.17
2018-09-27T02:21:56.548Z,3.30
2018-09-27T02:26:58.685Z,3.03
2018-09-27T02:32:00.815Z,3.23
2018-09-27T02:42:10.925Z,3.10
2018-09-27T02:47:13.041Z,3.27
2018-09-27T02:52:15.190Z,3.63
2018-09-27T02:57:17.321Z,3.20
2018-09-27T03:02:19.454Z,3.00
2018-09-27T03:07:21.590Z,3.53
2018-09-27T03:12:23.714Z,2.97
2018-09-27T03:17:25.869Z,3.20
2018-09-27T03:22:28.022Z,3.17
2018-09-27T03:27:30.173Z,3.67
2018-09-27T03:32:32.306Z,3.27
2018-09-27T03:37:34.428Z,3.17
2018-09-27T03:42:36.565Z,3.20
2018-09-27T03:47:38.712Z,3.37
2018-09-27T03:52:40.852Z,3.57
2018-09-27T03:57:42.974Z,3.60
2018-09-27T04:02:45.110Z,3.10
2018-09-27T04:07:47.258Z,3.53
2018-09-27T04:12:49.397Z,3.13
2018-09-27T04:17:53.562Z,3.50
2018-09-27T04:22:55.758Z,3.27
2018-09-27T04:27:57.932Z,3.50
2018-09-27T04:33:00.074Z,15.17
2018-09-27T04:38:02.269Z,7.80
2018-09-27T04:43:04.446Z,3.13
2018-09-27T04:48:06.593Z,3.30
2018-09-27T04:53:08.720Z,4.03
2018-09-27T04:58:10.886Z,3.40
2018-09-27T05:03:13.015Z,3.90
2018-09-27T05:08:15.146Z,7.00
2018-09-27T05:13:17.285Z,3.73
2018-09-27T05:18:19.411Z,3.70
2018-09-27T05:23:21.562Z,3.80
2018-09-27T05:28:23.727Z,3.57
2018-09-27T05:33:25.905Z,4.10
2018-09-27T05:38:28.098Z,5.37
2018-09-27T05:43:30.437Z,4.70
2018-09-27T05:48:32.578Z,4.00
2018-09-27T05:53:34.705Z,4.60
2018-09-27T05:58:36.858Z,5.83
2018-09-27T06:03:39.046Z,22.10
2018-09-27T06:08:41.150Z,9.27
2018-09-27T06:13:43.274Z,6.50
2018-09-27T06:18:45.414Z,4.30
2018-09-27T06:23:47.546Z,3.37
2018-09-27T06:28:49.901Z,3.73
2018-09-27T06:33:52.029Z,3.07
2018-09-27T06:38:54.157Z,5.03
2018-09-27T06:43:56.324Z,4.47
2018-09-27T06:48:58.457Z,4.10
2018-09-27T06:54:00.601Z,4.90
2018-09-27T06:59:02.745Z,3.97
2018-09-27T07:04:04.882Z,3.70
2018-09-27T07:09:08.714Z,3.87
2018-09-27T07:14:11.090Z,4.20
2018-09-27T07:19:13.237Z,4.13
2018-09-27T07:24:15.365Z,4.70
2018-09-27T07:29:17.515Z,4.50
2018-09-27T07:34:19.715Z,4.07
2018-09-27T07:39:21.873Z,3.93
2018-09-27T07:44:24.050Z,3.30
2018-09-27T07:49:26.162Z,3.90
2018-09-27T07:54:28.381Z,4.50
2018-09-27T07:59:30.466Z,4.40
2018-09-27T08:04:32.629Z,4.53
2018-09-27T08:09:34.802Z,5.10
2018-09-27T08:14:36.996Z,5.13
2018-09-27T08:19:39.120Z,5.13
2018-09-27T08:24:41.258Z,5.07
2018-09-27T08:29:43.455Z,5.30
2018-09-27T08:34:45.570Z,5.00
2018-09-27T08:39:47.734Z,5.90
2018-09-27T08:44:50.029Z,6.03
2018-09-27T08:49:52.063Z,6.33
2018-09-27T08:54:54.261Z,6.37
2018-09-27T08:59:56.394Z,6.37
2018-09-27T09:04:58.558Z,6.30
2018-09-27T09:10:00.727Z,6.87
2018-09-27T09:15:02.919Z,7.50
2018-09-27T09:20:05.406Z,7.77
2018-09-27T09:25:07.586Z,7.93
2018-09-27T09:30:09.734Z,8.27
2018-09-27T09:35:11.928Z,7.80
2018-09-27T09:40:14.104Z,7.80
2018-09-27T09:45:16.328Z,8.37
2018-09-27T09:50:18.481Z,8.10
2018-09-27T09:55:20.642Z,8.17
2018-09-27T10:00:22.811Z,8.97
2018-09-27T10:05:24.925Z,8.87
2018-09-27T10:10:27.078Z,9.50
2018-09-27T10:15:29.227Z,9.27
2018-09-27T10:20:31.379Z,9.27
2018-09-27T10:25:33.521Z,9.33
2018-09-27T10:30:35.658Z,10.03
2018-09-27T10:35:39.402Z,8.90
2018-09-27T10:40:42.027Z,9.00
2018-09-27T10:45:44.150Z,9.80
2018-09-27T10:50:46.286Z,9.80
2018-09-27T10:55:48.462Z,9.07
2018-09-27T11:00:50.618Z,9.90
2018-09-27T11:05:52.770Z,10.80
2018-09-27T11:10:54.921Z,10.20
2018-09-27T11:15:57.054Z,11.63
2018-09-27T11:20:59.206Z,10.50
2018-09-27T11:26:01.341Z,10.13
2018-09-27T11:31:09.258Z,10.80
2018-09-27T11:36:11.621Z,10.40
2018-09-27T11:41:13.742Z,11.10
2018-09-27T11:46:15.902Z,10.03
2018-09-27T11:51:18.105Z,9.00
2018-09-27T11:56:20.253Z,9.17
2018-09-27T12:01:22.426Z,8.63
2018-09-27T12:06:24.670Z,10.60
2018-09-27T12:11:26.773Z,7.63
2018-09-27T12:16:28.917Z,7.90
2018-09-27T12:21:31.054Z,6.23
2018-09-27T12:26:33.205Z,5.90
2018-09-27T12:31:35.337Z,6.00
2018-09-27T12:36:37.569Z,6.00
2018-09-27T12:41:39.684Z,5.37
2018-09-27T12:46:41.871Z,6.20
2018-09-27T12:51:44.119Z,6.00
2018-09-27T12:56:46.166Z,5.17
2018-09-27T13:01:48.395Z,5.87
2018-09-27T13:06:50.496Z,5.70
2018-09-27T13:11:52.664Z,5.37
2018-09-27T13:16:54.821Z,4.10
2018-09-27T13:21:56.974Z,4.17
2018-09-27T13:26:59.121Z,3.93
2018-09-27T13:32:01.299Z,3.83
2018-09-27T13:37:03.471Z,4.10
2018-09-27T13:42:05.602Z,4.30
2018-09-27T13:47:07.756Z,3.40
2018-09-27T13:52:09.920Z,4.07
2018-09-27T13:57:12.102Z,4.77
2018-09-27T14:02:14.218Z,4.97
2018-09-27T14:07:16.352Z,4.97
2018-09-27T14:12:18.510Z,4.23
2018-09-27T14:17:20.633Z,5.00
2018-09-27T14:22:22.818Z,4.33
2018-09-27T14:27:24.999Z,2.70
2018-09-27T14:32:27.126Z,2.30
2018-09-27T14:37:29.648Z,2.80
2018-09-27T14:42:31.832Z,3.07
2018-09-27T14:47:34.009Z,3.40
2018-09-27T14:52:36.165Z,3.40
2018-09-27T14:57:38.277Z,3.43
2018-09-27T15:02:40.426Z,3.33
2018-09-27T15:07:42.946Z,3.53
2018-09-27T15:12:45.169Z,3.60
2018-09-27T15:17:47.268Z,4.43
2018-09-27T15:22:49.409Z,4.10
2018-09-27T15:27:51.576Z,4.80
2018-09-27T15:32:53.718Z,5.00
2018-09-27T15:37:55.924Z,4.33
2018-09-27T15:42:58.070Z,4.70
2018-09-27T15:48:00.215Z,5.00
2018-09-27T15:53:02.374Z,5.07
2018-09-27T15:58:04.787Z,4.20
2018-09-27T16:03:06.957Z,4.53
2018-09-27T16:08:09.090Z,6.33
2018-09-27T16:13:11.260Z,4.80
2018-09-27T16:18:13.401Z,4.03
2018-09-27T16:23:15.550Z,4.23
2018-09-27T16:28:17.702Z,3.63
2018-09-27T16:33:20.029Z,3.60
2018-09-27T16:38:22.153Z,4.23
2018-09-27T16:43:24.295Z,4.37
2018-09-27T16:48:26.415Z,4.30
2018-09-27T16:53:28.613Z,4.20
2018-09-27T16:58:30.744Z,9.87
2018-09-27T17:03:32.929Z,7.90
2018-09-27T17:08:35.073Z,4.60
2018-09-27T17:13:37.234Z,3.80
2018-09-27T17:18:39.435Z,3.60
2018-09-27T17:23:41.575Z,3.30
2018-09-27T17:28:43.697Z,3.70
2018-09-27T17:33:45.830Z,3.40
2018-09-27T17:38:47.970Z,4.03
2018-09-27T17:43:50.119Z,4.53
2018-09-27T17:48:52.250Z,4.83
2018-09-27T17:53:54.394Z,5.50
2018-09-27T17:58:56.631Z,5.57
2018-09-27T18:03:58.752Z,5.93
2018-09-27T18:09:00.886Z,5.70
2018-09-27T18:14:03.050Z,5.67
2018-09-27T18:19:05.366Z,7.57
2018-09-27T18:24:07.729Z,6.37
2018-09-27T18:29:09.906Z,5.03
2018-09-27T18:34:12.062Z,5.63
2018-09-27T18:39:14.205Z,5.00
2018-09-27T18:44:17.154Z,4.80
2018-09-27T18:49:19.294Z,7.43
2018-09-27T18:54:21.438Z,7.63
2018-09-27T18:59:23.609Z,7.30
2018-09-27T19:04:25.758Z,5.17
2018-09-27T19:09:27.897Z,7.50
2018-09-27T19:14:30.254Z,4.77
2018-09-27T19:19:32.451Z,5.60
2018-09-27T19:24:34.715Z,4.83
2018-09-27T19:29:37.051Z,4.70
2018-09-27T19:34:39.198Z,4.80
2018-09-27T19:39:41.346Z,4.30
2018-09-27T19:44:43.486Z,5.13
2018-09-27T19:49:45.630Z,5.00
2018-09-27T19:54:47.774Z,5.27
2018-09-27T19:59:49.923Z,5.23
2018-09-27T20:04:52.082Z,5.73
2018-09-27T20:09:54.238Z,5.57
2018-09-27T20:14:56.383Z,5.83
2018-09-27T20:19:58.529Z,5.03
2018-09-27T20:25:00.658Z,6.80
2018-09-27T20:30:02.822Z,6.80
2018-09-27T20:35:04.990Z,10.40
2018-09-27T20:40:07.149Z,7.77
2018-09-27T20:45:16.452Z,8.00
2018-09-27T20:50:18.581Z,8.33
2018-09-27T20:55:20.726Z,7.47
2018-09-27T21:00:29.923Z,7.40
2018-09-27T21:05:32.133Z,7.00
2018-09-27T21:10:34.257Z,7.10
2018-09-27T21:15:36.433Z,7.17
2018-09-27T21:20:38.534Z,6.90
2018-09-27T21:25:40.686Z,6.60
2018-09-27T21:30:42.809Z,7.50
2018-09-27T21:35:44.981Z,6.53
2018-09-27T21:40:47.128Z,6.50
2018-09-27T21:45:49.253Z,6.37
2018-09-27T21:50:51.386Z,6.30
2018-09-27T21:55:53.517Z,6.60
2018-09-27T22:00:55.651Z,6.80
2018-09-27T22:05:57.779Z,6.30
2018-09-27T22:10:59.904Z,5.77
2018-09-27T22:16:02.038Z,6.23
2018-09-27T22:21:04.189Z,6.40
2018-09-27T22:26:06.346Z,6.43
2018-09-27T22:31:08.493Z,6.43
2018-09-27T22:36:10.639Z,5.80
2018-09-27T22:41:12.814Z,6.07
2018-09-27T22:46:15.114Z,5.70
2018-09-27T22:51:17.282Z,6.60
2018-09-27T22:56:19.450Z,6.47
2018-09-27T23:01:28.402Z,6.30
2018-09-27T23:06:30.522Z,6.60
2018-09-27T23:11:32.789Z,6.77
2018-09-27T23:16:34.910Z,6.40
2018-09-27T23:21:37.041Z,6.20
2018-09-27T23:26:39.163Z,6.70
2018-09-27T23:31:41.310Z,6.30
2018-09-27T23:36:43.470Z,6.40
2018-09-27T23:41:45.610Z,6.33
2018-09-27T23:46:47.758Z,6.30
2018-09-27T23:51:49.877Z,6.70
2018-09-27T23:56:52.018Z,6.97
